sensor_id;sensor_type;location;lat;lon;timestamp;P1;durP1;ratioP1;P2;durP2;ratioP2
1719;SDS011;857;52.872;9.692;2022-09-14T00:00:08;3.20;;;1.37;;
1719;SDS011;857;52.872;9.692;2022-09-14T00:02:36;2.27;;;1.63;;
1719;SDS011;857;52.872;9.692;2022-09-14T00:05:04;1.97;;;1.40;;
1719;SDS011;857;52.872;9.692;2022-09-14T00:07:32;2.10;;;1.43;;
1719;SDS011;857;52.872;9.692;2022-09-14T00:10:00;2.60;;;1.67;;
1719;SDS011;857;52.872;9.692;2022-09-14T00:12:27;1.70;;;1.60;;
1719;SDS011;857;52.872;9.692;2022-09-14T00:14:56;2.80;;;1.70;;
1719;SDS011;857;52.872;9.692;2022-09-14T00:17:24;2.50;;;1.67;;
1719;SDS011;857;52.872;9.692;2022-09-14T00:19:52;5.67;;;1.90;;
1719;SDS011;857;52.872;9.692;2022-09-14T00:22:19;3.73;;;1.53;;
1719;SDS011;857;52.872;9.692;2022-09-14T00:24:47;2.07;;;1.53;;
1719;SDS011;857;52.872;9.692;2022-09-14T00:27:15;1.80;;;1.43;;
1719;SDS011;857;52.872;9.692;2022-09-14T00:29:43;4.40;;;1.43;;
1719;SDS011;857;52.872;9.692;2022-09-14T00:32:14;3.40;;;1.80;;
1719;SDS011;857;52.872;9.692;2022-09-14T00:34:42;4.73;;;1.60;;
1719;SDS011;857;52.872;9.692;2022-09-14T00:37:09;3.67;;;1.63;;
1719;SDS011;857;52.872;9.692;2022-09-14T00:39:37;2.40;;;1.50;;
1719;SDS011;857;52.872;9.692;2022-09-14T00:42:05;2.60;;;1.40;;
1719;SDS011;857;52.872;9.692;2022-09-14T00:47:20;2.33;;;1.50;;
1719;SDS011;857;52.872;9.692;2022-09-14T00:49:48;2.30;;;1.60;;
1719;SDS011;857;52.872;9.692;2022-09-14T00:52:17;3.50;;;2.10;;
1719;SDS011;857;52.872;9.692;2022-09-14T00:54:47;4.20;;;1.60;;
1719;SDS011;857;52.872;9.692;2022-09-14T00:57:15;2.73;;;2.00;;
1719;SDS011;857;52.872;9.692;2022-09-14T00:59:43;4.97;;;1.70;;
1719;SDS011;857;52.872;9.692;2022-09-14T01:02:12;2.13;;;1.70;;
1719;SDS011;857;52.872;9.692;2022-09-14T01:04:42;3.57;;;1.90;;
1719;SDS011;857;52.872;9.692;2022-09-14T01:07:12;1.93;;;1.63;;
1719;SDS011;857;52.872;9.692;2022-09-14T01:09:43;3.33;;;1.50;;
1719;SDS011;857;52.872;9.692;2022-09-14T01:12:13;3.50;;;1.70;;
1719;SDS011;857;52.872;9.692;2022-09-14T01:14:47;1.90;;;1.50;;
1719;SDS011;857;52.872;9.692;2022-09-14T01:17:21;1.60;;;1.50;;
1719;SDS011;857;52.872;9.692;2022-09-14T01:20:02;4.40;;;1.80;;
1719;SDS011;857;52.872;9.692;2022-09-14T01:22:34;2.57;;;1.70;;
1719;SDS011;857;52.872;9.692;2022-09-14T01:25:06;3.10;;;1.57;;
1719;SDS011;857;52.872;9.692;2022-09-14T01:27:36;2.57;;;1.50;;
1719;SDS011;857;52.872;9.692;2022-09-14T01:30:06;1.70;;;1.60;;
1719;SDS011;857;52.872;9.692;2022-09-14T01:32:37;1.97;;;1.60;;
1719;SDS011;857;52.872;9.692;2022-09-14T01:35:07;2.23;;;1.67;;
1719;SDS011;857;52.872;9.692;2022-09-14T01:37:39;4.13;;;1.90;;
1719;SDS011;857;52.872;9.692;2022-09-14T01:40:08;3.03;;;1.83;;
1719;SDS011;857;52.872;9.692;2022-09-14T01:42:40;4.43;;;1.60;;
1719;SDS011;857;52.872;9.692;2022-09-14T01:45:10;5.77;;;1.80;;
1719;SDS011;857;52.872;9.692;2022-09-14T01:47:40;2.10;;;1.50;;
1719;SDS011;857;52.872;9.692;2022-09-14T01:50:09;1.57;;;1.47;;
1719;SDS011;857;52.872;9.692;2022-09-14T01:52:38;1.73;;;1.50;;
1719;SDS011;857;52.872;9.692;2022-09-14T01:55:09;3.13;;;1.70;;
1719;SDS011;857;52.872;9.692;2022-09-14T01:57:41;3.13;;;1.77;;
1719;SDS011;857;52.872;9.692;2022-09-14T02:00:11;2.43;;;1.60;;
1719;SDS011;857;52.872;9.692;2022-09-14T02:02:41;2.90;;;1.60;;
1719;SDS011;857;52.872;9.692;2022-09-14T02:05:12;3.43;;;1.90;;
1719;SDS011;857;52.872;9.692;2022-09-14T02:07:41;1.93;;;1.80;;
1719;SDS011;857;52.872;9.692;2022-09-14T02:10:09;2.90;;;2.10;;
1719;SDS011;857;52.872;9.692;2022-09-14T02:12:38;2.20;;;1.80;;
1719;SDS011;857;52.872;9.692;2022-09-14T02:15:08;4.00;;;1.47;;
1719;SDS011;857;52.872;9.692;2022-09-14T02:17:36;3.97;;;1.83;;
1719;SDS011;857;52.872;9.692;2022-09-14T02:20:04;3.30;;;1.93;;
1719;SDS011;857;52.872;9.692;2022-09-14T02:22:33;5.00;;;1.70;;
1719;SDS011;857;52.872;9.692;2022-09-14T02:25:00;6.17;;;1.97;;
1719;SDS011;857;52.872;9.692;2022-09-14T02:27:28;3.17;;;1.70;;
1719;SDS011;857;52.872;9.692;2022-09-14T02:29:56;3.53;;;1.83;;
1719;SDS011;857;52.872;9.692;2022-09-14T02:32:26;4.60;;;1.80;;
1719;SDS011;857;52.872;9.692;2022-09-14T02:34:58;4.53;;;2.17;;
1719;SDS011;857;52.872;9.692;2022-09-14T02:37:31;1.80;;;1.30;;
1719;SDS011;857;52.872;9.692;2022-09-14T02:40:04;4.00;;;1.80;;
1719;SDS011;857;52.872;9.692;2022-09-14T02:42:38;4.27;;;1.87;;
1719;SDS011;857;52.872;9.692;2022-09-14T02:45:09;2.93;;;1.70;;
1719;SDS011;857;52.872;9.692;2022-09-14T02:47:42;3.07;;;1.57;;
1719;SDS011;857;52.872;9.692;2022-09-14T02:50:17;2.50;;;1.60;;
1719;SDS011;857;52.872;9.692;2022-09-14T02:52:47;2.90;;;1.30;;
1719;SDS011;857;52.872;9.692;2022-09-14T02:55:18;2.80;;;1.90;;
1719;SDS011;857;52.872;9.692;2022-09-14T02:58:00;3.27;;;1.67;;
1719;SDS011;857;52.872;9.692;2022-09-14T03:00:28;1.60;;;1.50;;
1719;SDS011;857;52.872;9.692;2022-09-14T03:02:57;2.40;;;1.60;;
1719;SDS011;857;52.872;9.692;2022-09-14T03:05:25;2.00;;;1.80;;
1719;SDS011;857;52.872;9.692;2022-09-14T03:07:53;2.30;;;1.30;;
1719;SDS011;857;52.872;9.692;2022-09-14T03:10:20;2.50;;;1.70;;
1719;SDS011;857;52.872;9.692;2022-09-14T03:12:48;3.17;;;1.67;;
1719;SDS011;857;52.872;9.692;2022-09-14T03:15:16;4.50;;;1.70;;
1719;SDS011;857;52.872;9.692;2022-09-14T03:17:44;4.80;;;1.90;;
1719;SDS011;857;52.872;9.692;2022-09-14T03:20:13;2.90;;;1.70;;
1719;SDS011;857;52.872;9.692;2022-09-14T03:22:41;2.57;;;1.83;;
1719;SDS011;857;52.872;9.692;2022-09-14T03:25:09;2.40;;;1.87;;
1719;SDS011;857;52.872;9.692;2022-09-14T03:27:36;1.60;;;1.47;;
1719;SDS011;857;52.872;9.692;2022-09-14T03:30:04;2.10;;;1.47;;
1719;SDS011;857;52.872;9.692;2022-09-14T03:32:32;2.07;;;1.63;;
1719;SDS011;857;52.872;9.692;2022-09-14T03:35:00;1.70;;;1.60;;
1719;SDS011;857;52.872;9.692;2022-09-14T03:37:29;2.80;;;1.83;;
1719;SDS011;857;52.872;9.692;2022-09-14T03:39:57;1.63;;;1.53;;
1719;SDS011;857;52.872;9.692;2022-09-14T03:42:24;4.10;;;1.23;;
1719;SDS011;857;52.872;9.692;2022-09-14T03:44:52;2.23;;;1.47;;
1719;SDS011;857;52.872;9.692;2022-09-14T03:47:20;2.93;;;1.47;;
1719;SDS011;857;52.872;9.692;2022-09-14T03:49:47;2.80;;;1.57;;
1719;SDS011;857;52.872;9.692;2022-09-14T03:52:15;4.67;;;2.37;;
1719;SDS011;857;52.872;9.692;2022-09-14T03:54:44;2.90;;;1.80;;
1719;SDS011;857;52.872;9.692;2022-09-14T03:57:12;1.63;;;1.53;;
1719;SDS011;857;52.872;9.692;2022-09-14T03:59:39;2.93;;;1.60;;
1719;SDS011;857;52.872;9.692;2022-09-14T04:02:07;4.57;;;1.87;;
1719;SDS011;857;52.872;9.692;2022-09-14T04:04:35;2.00;;;1.73;;
1719;SDS011;857;52.872;9.692;2022-09-14T04:07:02;5.23;;;1.63;;
1719;SDS011;857;52.872;9.692;2022-09-14T04:09:30;3.10;;;1.53;;
1719;SDS011;857;52.872;9.692;2022-09-14T04:11:59;4.40;;;1.80;;
1719;SDS011;857;52.872;9.692;2022-09-14T04:14:27;1.97;;;1.50;;
1719;SDS011;857;52.872;9.692;2022-09-14T04:16:55;4.00;;;1.80;;
1719;SDS011;857;52.872;9.692;2022-09-14T04:19:22;2.07;;;1.80;;
1719;SDS011;857;52.872;9.692;2022-09-14T04:21:50;4.03;;;2.10;;
1719;SDS011;857;52.872;9.692;2022-09-14T04:24:17;1.50;;;1.40;;
1719;SDS011;857;52.872;9.692;2022-09-14T04:26:45;3.00;;;1.67;;
1719;SDS011;857;52.872;9.692;2022-09-14T04:29:14;2.27;;;2.00;;
1719;SDS011;857;52.872;9.692;2022-09-14T04:31:42;2.60;;;1.40;;
1719;SDS011;857;52.872;9.692;2022-09-14T04:34:10;2.57;;;1.97;;
1719;SDS011;857;52.872;9.692;2022-09-14T04:36:38;2.67;;;2.17;;
1719;SDS011;857;52.872;9.692;2022-09-14T04:39:06;1.50;;;1.40;;
1719;SDS011;857;52.872;9.692;2022-09-14T04:41:33;3.20;;;1.67;;
1719;SDS011;857;52.872;9.692;2022-09-14T04:44:01;3.33;;;1.90;;
1719;SDS011;857;52.872;9.692;2022-09-14T04:46:31;1.90;;;1.70;;
1719;SDS011;857;52.872;9.692;2022-09-14T04:49:00;3.00;;;1.50;;
1719;SDS011;857;52.872;9.692;2022-09-14T04:51:28;3.97;;;2.10;;
1719;SDS011;857;52.872;9.692;2022-09-14T04:53:57;4.50;;;1.60;;
1719;SDS011;857;52.872;9.692;2022-09-14T04:56:25;2.50;;;2.00;;
1719;SDS011;857;52.872;9.692;2022-09-14T04:58:54;5.23;;;1.97;;
1719;SDS011;857;52.872;9.692;2022-09-14T05:01:23;4.77;;;1.87;;
1719;SDS011;857;52.872;9.692;2022-09-14T05:03:52;2.97;;;1.80;;
1719;SDS011;857;52.872;9.692;2022-09-14T05:06:21;2.37;;;1.50;;
1719;SDS011;857;52.872;9.692;2022-09-14T05:08:49;1.60;;;1.50;;
1719;SDS011;857;52.872;9.692;2022-09-14T05:11:17;2.37;;;1.90;;
1719;SDS011;857;52.872;9.692;2022-09-14T05:13:45;2.23;;;2.00;;
1719;SDS011;857;52.872;9.692;2022-09-14T05:16:13;2.57;;;1.90;;
1719;SDS011;857;52.872;9.692;2022-09-14T05:18:41;3.90;;;2.00;;
1719;SDS011;857;52.872;9.692;2022-09-14T05:21:11;2.20;;;2.00;;
1719;SDS011;857;52.872;9.692;2022-09-14T05:23:39;1.83;;;1.73;;
1719;SDS011;857;52.872;9.692;2022-09-14T05:26:07;4.53;;;2.17;;
1719;SDS011;857;52.872;9.692;2022-09-14T05:28:36;3.00;;;1.90;;
1719;SDS011;857;52.872;9.692;2022-09-14T05:31:04;4.17;;;2.10;;
1719;SDS011;857;52.872;9.692;2022-09-14T05:33:32;2.27;;;2.00;;
1719;SDS011;857;52.872;9.692;2022-09-14T05:36:00;2.20;;;1.90;;
1719;SDS011;857;52.872;9.692;2022-09-14T05:38:29;3.20;;;2.30;;
1719;SDS011;857;52.872;9.692;2022-09-14T05:40:57;4.40;;;2.50;;
1719;SDS011;857;52.872;9.692;2022-09-14T05:43:26;2.80;;;2.10;;
1719;SDS011;857;52.872;9.692;2022-09-14T05:45:54;3.30;;;2.37;;
1719;SDS011;857;52.872;9.692;2022-09-14T05:48:22;3.20;;;2.10;;
1719;SDS011;857;52.872;9.692;2022-09-14T05:50:56;3.67;;;2.40;;
1719;SDS011;857;52.872;9.692;2022-09-14T05:53:24;2.83;;;2.40;;
1719;SDS011;857;52.872;9.692;2022-09-14T05:55:59;4.37;;;2.07;;
1719;SDS011;857;52.872;9.692;2022-09-14T05:58:27;6.67;;;2.60;;
1719;SDS011;857;52.872;9.692;2022-09-14T06:00:54;3.53;;;2.10;;
1719;SDS011;857;52.872;9.692;2022-09-14T06:03:22;4.17;;;2.40;;
1719;SDS011;857;52.872;9.692;2022-09-14T06:05:49;5.63;;;2.70;;
1719;SDS011;857;52.872;9.692;2022-09-14T06:08:19;3.37;;;2.57;;
1719;SDS011;857;52.872;9.692;2022-09-14T06:10:48;2.90;;;2.57;;
1719;SDS011;857;52.872;9.692;2022-09-14T06:13:17;3.63;;;2.53;;
1719;SDS011;857;52.872;9.692;2022-09-14T06:15:44;3.13;;;2.83;;
1719;SDS011;857;52.872;9.692;2022-09-14T06:18:12;3.30;;;2.33;;
1719;SDS011;857;52.872;9.692;2022-09-14T06:20:43;2.73;;;2.50;;
1719;SDS011;857;52.872;9.692;2022-09-14T06:23:15;2.87;;;2.30;;
1719;SDS011;857;52.872;9.692;2022-09-14T06:25:43;4.77;;;2.97;;
1719;SDS011;857;52.872;9.692;2022-09-14T06:28:10;2.40;;;2.10;;
1719;SDS011;857;52.872;9.692;2022-09-14T06:30:42;2.17;;;1.97;;
1719;SDS011;857;52.872;9.692;2022-09-14T06:33:09;0.80;;;0.80;;
1719;SDS011;857;52.872;9.692;2022-09-14T06:35:37;1.40;;;1.10;;
1719;SDS011;857;52.872;9.692;2022-09-14T06:38:06;1.50;;;1.40;;
1719;SDS011;857;52.872;9.692;2022-09-14T06:40:34;2.93;;;2.50;;
1719;SDS011;857;52.872;9.692;2022-09-14T06:43:02;3.90;;;2.10;;
1719;SDS011;857;52.872;9.692;2022-09-14T06:45:30;1.97;;;1.40;;
1719;SDS011;857;52.872;9.692;2022-09-14T06:47:59;4.30;;;2.70;;
1719;SDS011;857;52.872;9.692;2022-09-14T06:50:27;2.50;;;0.87;;
1719;SDS011;857;52.872;9.692;2022-09-14T06:52:54;4.67;;;2.93;;
1719;SDS011;857;52.872;9.692;2022-09-14T06:55:22;4.83;;;3.50;;
1719;SDS011;857;52.872;9.692;2022-09-14T06:57:50;4.03;;;2.90;;
1719;SDS011;857;52.872;9.692;2022-09-14T07:00:17;7.47;;;3.50;;
1719;SDS011;857;52.872;9.692;2022-09-14T07:02:45;3.90;;;3.50;;
1719;SDS011;857;52.872;9.692;2022-09-14T07:05:14;4.77;;;4.07;;
1719;SDS011;857;52.872;9.692;2022-09-14T07:07:44;4.50;;;4.00;;
1719;SDS011;857;52.872;9.692;2022-09-14T07:10:12;3.50;;;2.03;;
1719;SDS011;857;52.872;9.692;2022-09-14T07:12:40;5.83;;;4.03;;
1719;SDS011;857;52.872;9.692;2022-09-14T07:15:08;4.40;;;2.50;;
1719;SDS011;857;52.872;9.692;2022-09-14T07:17:35;9.37;;;5.23;;
1719;SDS011;857;52.872;9.692;2022-09-14T07:20:03;6.07;;;4.47;;
1719;SDS011;857;52.872;9.692;2022-09-14T07:22:33;5.33;;;4.50;;
1719;SDS011;857;52.872;9.692;2022-09-14T07:25:01;3.50;;;3.17;;
1719;SDS011;857;52.872;9.692;2022-09-14T07:27:29;5.47;;;4.27;;
1719;SDS011;857;52.872;9.692;2022-09-14T07:29:56;6.77;;;4.77;;
1719;SDS011;857;52.872;9.692;2022-09-14T07:32:24;4.03;;;3.57;;
1719;SDS011;857;52.872;9.692;2022-09-14T07:34:52;5.83;;;4.07;;
1719;SDS011;857;52.872;9.692;2022-09-14T07:37:19;2.47;;;2.27;;
1719;SDS011;857;52.872;9.692;2022-09-14T07:39:48;2.13;;;1.47;;
1719;SDS011;857;52.872;9.692;2022-09-14T07:42:16;10.17;;;4.50;;
1719;SDS011;857;52.872;9.692;2022-09-14T07:44:44;7.07;;;4.13;;
1719;SDS011;857;52.872;9.692;2022-09-14T07:47:11;3.40;;;2.13;;
1719;SDS011;857;52.872;9.692;2022-09-14T07:49:39;6.17;;;4.03;;
1719;SDS011;857;52.872;9.692;2022-09-14T07:52:06;8.10;;;4.47;;
1719;SDS011;857;52.872;9.692;2022-09-14T07:54:35;8.53;;;4.03;;
1719;SDS011;857;52.872;9.692;2022-09-14T07:57:05;1.33;;;1.23;;
1719;SDS011;857;52.872;9.692;2022-09-14T07:59:32;1.60;;;1.30;;
1719;SDS011;857;52.872;9.692;2022-09-14T08:02:00;3.97;;;3.30;;
1719;SDS011;857;52.872;9.692;2022-09-14T08:04:28;1.50;;;1.40;;
1719;SDS011;857;52.872;9.692;2022-09-14T08:06:56;1.00;;;0.90;;
1719;SDS011;857;52.872;9.692;2022-09-14T08:09:23;5.47;;;3.07;;
1719;SDS011;857;52.872;9.692;2022-09-14T08:11:52;5.17;;;3.80;;
1719;SDS011;857;52.872;9.692;2022-09-14T08:14:21;1.27;;;1.17;;
1719;SDS011;857;52.872;9.692;2022-09-14T08:16:48;2.43;;;2.23;;
1719;SDS011;857;52.872;9.692;2022-09-14T08:19:16;5.03;;;3.80;;
1719;SDS011;857;52.872;9.692;2022-09-14T08:21:45;1.10;;;1.00;;
1719;SDS011;857;52.872;9.692;2022-09-14T08:24:13;3.43;;;1.03;;
1719;SDS011;857;52.872;9.692;2022-09-14T08:26:41;1.73;;;1.43;;
1719;SDS011;857;52.872;9.692;2022-09-14T08:29:10;2.00;;;0.80;;
1719;SDS011;857;52.872;9.692;2022-09-14T08:31:39;0.83;;;0.80;;
1719;SDS011;857;52.872;9.692;2022-09-14T08:34:07;3.80;;;2.70;;
1719;SDS011;857;52.872;9.692;2022-09-14T08:36:35;10.27;;;3.17;;
1719;SDS011;857;52.872;9.692;2022-09-14T08:39:03;1.40;;;1.20;;
1719;SDS011;857;52.872;9.692;2022-09-14T08:41:34;1.37;;;1.00;;
1719;SDS011;857;52.872;9.692;2022-09-14T08:44:05;1.27;;;0.90;;
1719;SDS011;857;52.872;9.692;2022-09-14T08:46:41;2.17;;;1.50;;
1719;SDS011;857;52.872;9.692;2022-09-14T08:49:12;2.87;;;2.20;;
1719;SDS011;857;52.872;9.692;2022-09-14T08:51:41;5.13;;;2.80;;
1719;SDS011;857;52.872;9.692;2022-09-14T08:54:08;7.27;;;2.90;;
1719;SDS011;857;52.872;9.692;2022-09-14T08:56:38;1.60;;;1.07;;
1719;SDS011;857;52.872;9.692;2022-09-14T08:59:12;2.33;;;2.10;;
1719;SDS011;857;52.872;9.692;2022-09-14T09:01:45;6.97;;;2.40;;
1719;SDS011;857;52.872;9.692;2022-09-14T09:04:18;6.13;;;2.40;;
1719;SDS011;857;52.872;9.692;2022-09-14T09:06:49;5.43;;;2.40;;
1719;SDS011;857;52.872;9.692;2022-09-14T09:09:22;5.80;;;2.67;;
1719;SDS011;857;52.872;9.692;2022-09-14T09:11:51;3.60;;;2.77;;
1719;SDS011;857;52.872;9.692;2022-09-14T09:14:20;4.80;;;2.47;;
1719;SDS011;857;52.872;9.692;2022-09-14T09:16:51;5.57;;;2.40;;
1719;SDS011;857;52.872;9.692;2022-09-14T09:19:22;3.80;;;2.10;;
1719;SDS011;857;52.872;9.692;2022-09-14T09:21:51;3.13;;;1.73;;
1719;SDS011;857;52.872;9.692;2022-09-14T09:24:21;3.40;;;1.90;;
1719;SDS011;857;52.872;9.692;2022-09-14T09:26:50;2.60;;;1.43;;
1719;SDS011;857;52.872;9.692;2022-09-14T09:29:18;1.00;;;0.90;;
1719;SDS011;857;52.872;9.692;2022-09-14T09:32:06;5.20;;;2.40;;
1719;SDS011;857;52.872;9.692;2022-09-14T09:34:53;3.20;;;1.80;;
1719;SDS011;857;52.872;9.692;2022-09-14T09:37:37;5.93;;;1.40;;
1719;SDS011;857;52.872;9.692;2022-09-14T09:40:12;1.43;;;0.97;;
1719;SDS011;857;52.872;9.692;2022-09-14T09:45:23;2.90;;;1.67;;
1719;SDS011;857;52.872;9.692;2022-09-14T09:47:52;6.13;;;1.50;;
1719;SDS011;857;52.872;9.692;2022-09-14T09:50:19;3.00;;;1.33;;
1719;SDS011;857;52.872;9.692;2022-09-14T09:52:50;0.77;;;0.77;;
1719;SDS011;857;52.872;9.692;2022-09-14T09:55:18;1.67;;;0.77;;
1719;SDS011;857;52.872;9.692;2022-09-14T09:57:47;5.40;;;1.50;;
1719;SDS011;857;52.872;9.692;2022-09-14T10:00:19;5.77;;;1.47;;
1719;SDS011;857;52.872;9.692;2022-09-14T10:02:47;1.63;;;0.77;;
1719;SDS011;857;52.872;9.692;2022-09-14T10:05:20;4.10;;;1.77;;
1719;SDS011;857;52.872;9.692;2022-09-14T10:07:50;2.50;;;1.63;;
1719;SDS011;857;52.872;9.692;2022-09-14T10:10:19;5.33;;;1.67;;
1719;SDS011;857;52.872;9.692;2022-09-14T10:12:48;7.03;;;2.10;;
1719;SDS011;857;52.872;9.692;2022-09-14T10:15:18;5.70;;;1.73;;
1719;SDS011;857;52.872;9.692;2022-09-14T10:17:54;1.93;;;1.60;;
1719;SDS011;857;52.872;9.692;2022-09-14T10:20:23;5.30;;;2.40;;
1719;SDS011;857;52.872;9.692;2022-09-14T10:22:51;3.67;;;1.53;;
1719;SDS011;857;52.872;9.692;2022-09-14T10:25:20;6.07;;;1.90;;
1719;SDS011;857;52.872;9.692;2022-09-14T10:27:48;3.90;;;1.63;;
1719;SDS011;857;52.872;9.692;2022-09-14T10:30:24;11.13;;;2.17;;
1719;SDS011;857;52.872;9.692;2022-09-14T10:32:53;4.97;;;1.60;;
1719;SDS011;857;52.872;9.692;2022-09-14T10:35:25;3.53;;;1.10;;
1719;SDS011;857;52.872;9.692;2022-09-14T10:37:58;2.60;;;1.57;;
1719;SDS011;857;52.872;9.692;2022-09-14T10:40:30;5.93;;;1.70;;
1719;SDS011;857;52.872;9.692;2022-09-14T10:43:02;5.20;;;1.50;;
1719;SDS011;857;52.872;9.692;2022-09-14T10:45:34;3.00;;;1.00;;
1719;SDS011;857;52.872;9.692;2022-09-14T10:48:08;5.33;;;1.60;;
1719;SDS011;857;52.872;9.692;2022-09-14T10:50:47;3.40;;;1.10;;
1719;SDS011;857;52.872;9.692;2022-09-14T10:53:23;1.07;;;1.00;;
1719;SDS011;857;52.872;9.692;2022-09-14T10:55:56;4.13;;;1.23;;
1719;SDS011;857;52.872;9.692;2022-09-14T10:58:33;2.77;;;1.13;;
1719;SDS011;857;52.872;9.692;2022-09-14T11:01:07;2.53;;;1.17;;
1719;SDS011;857;52.872;9.692;2022-09-14T11:03:44;4.70;;;1.67;;
1719;SDS011;857;52.872;9.692;2022-09-14T11:06:18;3.63;;;1.50;;
1719;SDS011;857;52.872;9.692;2022-09-14T11:08:49;2.50;;;1.20;;
1719;SDS011;857;52.872;9.692;2022-09-14T11:11:23;2.17;;;0.93;;
1719;SDS011;857;52.872;9.692;2022-09-14T11:13:59;2.97;;;1.00;;
1719;SDS011;857;52.872;9.692;2022-09-14T11:19:14;1.37;;;1.10;;
1719;SDS011;857;52.872;9.692;2022-09-14T11:21:49;4.37;;;1.50;;
1719;SDS011;857;52.872;9.692;2022-09-14T11:24:20;1.60;;;0.97;;
1719;SDS011;857;52.872;9.692;2022-09-14T11:26:52;1.03;;;0.93;;
1719;SDS011;857;52.872;9.692;2022-09-14T11:29:23;5.50;;;1.30;;
1719;SDS011;857;52.872;9.692;2022-09-14T11:31:53;7.80;;;1.80;;
1719;SDS011;857;52.872;9.692;2022-09-14T11:34:24;1.00;;;0.90;;
1719;SDS011;857;52.872;9.692;2022-09-14T11:36:54;2.27;;;1.00;;
1719;SDS011;857;52.872;9.692;2022-09-14T11:39:24;4.63;;;1.83;;
1719;SDS011;857;52.872;9.692;2022-09-14T11:41:55;5.47;;;1.67;;
1719;SDS011;857;52.872;9.692;2022-09-14T11:44:27;3.10;;;1.40;;
1719;SDS011;857;52.872;9.692;2022-09-14T11:47:00;6.63;;;1.47;;
1719;SDS011;857;52.872;9.692;2022-09-14T11:49:33;3.00;;;1.53;;
1719;SDS011;857;52.872;9.692;2022-09-14T11:52:08;1.63;;;0.80;;
1719;SDS011;857;52.872;9.692;2022-09-14T11:54:39;1.57;;;1.27;;
1719;SDS011;857;52.872;9.692;2022-09-14T11:57:11;2.23;;;1.10;;
1719;SDS011;857;52.872;9.692;2022-09-14T11:59:45;0.80;;;0.80;;
1719;SDS011;857;52.872;9.692;2022-09-14T12:08:22;1.93;;;1.30;;
1719;SDS011;857;52.872;9.692;2022-09-14T12:11:04;4.30;;;1.60;;
1719;SDS011;857;52.872;9.692;2022-09-14T12:13:49;3.43;;;1.27;;
1719;SDS011;857;52.872;9.692;2022-09-14T12:19:19;4.10;;;1.10;;
1719;SDS011;857;52.872;9.692;2022-09-14T12:21:47;3.33;;;1.17;;
1719;SDS011;857;52.872;9.692;2022-09-14T12:24:20;1.67;;;1.20;;
1719;SDS011;857;52.872;9.692;2022-09-14T12:26:49;4.00;;;1.30;;
1719;SDS011;857;52.872;9.692;2022-09-14T12:29:24;2.30;;;1.03;;
1719;SDS011;857;52.872;9.692;2022-09-14T12:34:41;2.17;;;1.73;;
1719;SDS011;857;52.872;9.692;2022-09-14T12:42:40;4.33;;;1.40;;
1719;SDS011;857;52.872;9.692;2022-09-14T12:47:54;2.53;;;1.17;;
1719;SDS011;857;52.872;9.692;2022-09-14T12:50:21;1.50;;;1.07;;
1719;SDS011;857;52.872;9.692;2022-09-14T12:55:53;2.93;;;1.20;;
1719;SDS011;857;52.872;9.692;2022-09-14T12:58:29;5.63;;;1.50;;
1719;SDS011;857;52.872;9.692;2022-09-14T13:01:05;1.10;;;0.87;;
1719;SDS011;857;52.872;9.692;2022-09-14T13:03:41;2.30;;;0.87;;
1719;SDS011;857;52.872;9.692;2022-09-14T13:06:10;1.33;;;0.80;;
1719;SDS011;857;52.872;9.692;2022-09-14T13:08:41;7.80;;;1.80;;
1719;SDS011;857;52.872;9.692;2022-09-14T13:11:09;7.07;;;1.30;;
1719;SDS011;857;52.872;9.692;2022-09-14T13:13:45;5.00;;;1.43;;
1719;SDS011;857;52.872;9.692;2022-09-14T13:16:15;1.47;;;1.00;;
1719;SDS011;857;52.872;9.692;2022-09-14T13:18:44;1.80;;;0.73;;
1719;SDS011;857;52.872;9.692;2022-09-14T13:21:16;0.90;;;0.67;;
1719;SDS011;857;52.872;9.692;2022-09-14T13:23:44;4.03;;;1.87;;
1719;SDS011;857;52.872;9.692;2022-09-14T13:26:14;2.73;;;1.33;;
1719;SDS011;857;52.872;9.692;2022-09-14T13:28:43;1.47;;;0.77;;
1719;SDS011;857;52.872;9.692;2022-09-14T13:31:22;4.70;;;1.30;;
1719;SDS011;857;52.872;9.692;2022-09-14T13:33:52;3.87;;;1.40;;
1719;SDS011;857;52.872;9.692;2022-09-14T13:36:22;1.93;;;1.73;;
1719;SDS011;857;52.872;9.692;2022-09-14T13:38:50;3.33;;;1.20;;
1719;SDS011;857;52.872;9.692;2022-09-14T13:41:18;1.73;;;1.10;;
1719;SDS011;857;52.872;9.692;2022-09-14T13:43:48;2.70;;;1.57;;
1719;SDS011;857;52.872;9.692;2022-09-14T13:46:20;1.80;;;1.40;;
1719;SDS011;857;52.872;9.692;2022-09-14T13:48:48;3.70;;;1.53;;
1719;SDS011;857;52.872;9.692;2022-09-14T13:51:20;2.13;;;1.60;;
1719;SDS011;857;52.872;9.692;2022-09-14T13:53:49;4.70;;;1.50;;
1719;SDS011;857;52.872;9.692;2022-09-14T13:56:19;2.77;;;1.13;;
1719;SDS011;857;52.872;9.692;2022-09-14T13:58:47;0.70;;;0.60;;
1719;SDS011;857;52.872;9.692;2022-09-14T14:01:26;2.57;;;1.10;;
1719;SDS011;857;52.872;9.692;2022-09-14T14:03:54;2.30;;;0.70;;
1719;SDS011;857;52.872;9.692;2022-09-14T14:06:24;2.60;;;1.10;;
1719;SDS011;857;52.872;9.692;2022-09-14T14:08:53;4.87;;;1.50;;
1719;SDS011;857;52.872;9.692;2022-09-14T14:11:28;2.90;;;1.37;;
1719;SDS011;857;52.872;9.692;2022-09-14T14:14:07;2.80;;;1.20;;
1719;SDS011;857;52.872;9.692;2022-09-14T14:16:37;3.67;;;1.33;;
1719;SDS011;857;52.872;9.692;2022-09-14T14:19:05;0.90;;;0.60;;
1719;SDS011;857;52.872;9.692;2022-09-14T14:21:33;1.80;;;1.13;;
1719;SDS011;857;52.872;9.692;2022-09-14T14:24:22;3.33;;;1.50;;
1719;SDS011;857;52.872;9.692;2022-09-14T14:26:51;3.90;;;1.57;;
1719;SDS011;857;52.872;9.692;2022-09-14T14:29:19;2.63;;;1.40;;
1719;SDS011;857;52.872;9.692;2022-09-14T14:31:49;2.37;;;1.40;;
1719;SDS011;857;52.872;9.692;2022-09-14T14:34:17;0.80;;;0.70;;
1719;SDS011;857;52.872;9.692;2022-09-14T14:36:45;3.07;;;1.50;;
1719;SDS011;857;52.872;9.692;2022-09-14T14:39:15;3.87;;;1.87;;
1719;SDS011;857;52.872;9.692;2022-09-14T14:41:43;1.43;;;0.70;;
1719;SDS011;857;52.872;9.692;2022-09-14T14:44:11;2.93;;;1.50;;
1719;SDS011;857;52.872;9.692;2022-09-14T14:46:39;1.73;;;1.20;;
1719;SDS011;857;52.872;9.692;2022-09-14T14:49:10;6.47;;;1.97;;
1719;SDS011;857;52.872;9.692;2022-09-14T14:51:38;4.40;;;1.47;;
1719;SDS011;857;52.872;9.692;2022-09-14T14:54:06;1.37;;;1.13;;
1719;SDS011;857;52.872;9.692;2022-09-14T14:56:34;1.27;;;0.90;;
1719;SDS011;857;52.872;9.692;2022-09-14T14:59:02;1.87;;;1.23;;
1719;SDS011;857;52.872;9.692;2022-09-14T15:01:41;1.20;;;0.87;;
1719;SDS011;857;52.872;9.692;2022-09-14T15:04:09;0.90;;;0.90;;
1719;SDS011;857;52.872;9.692;2022-09-14T15:06:38;7.13;;;1.53;;
1719;SDS011;857;52.872;9.692;2022-09-14T15:09:05;4.00;;;1.20;;
1719;SDS011;857;52.872;9.692;2022-09-14T15:11:36;3.17;;;1.57;;
1719;SDS011;857;52.872;9.692;2022-09-14T15:14:05;6.40;;;1.43;;
1719;SDS011;857;52.872;9.692;2022-09-14T15:16:32;2.33;;;1.33;;
1719;SDS011;857;52.872;9.692;2022-09-14T15:19:00;4.77;;;1.30;;
1719;SDS011;857;52.872;9.692;2022-09-14T15:21:28;2.57;;;1.50;;
1719;SDS011;857;52.872;9.692;2022-09-14T15:23:57;2.03;;;1.30;;
1719;SDS011;857;52.872;9.692;2022-09-14T15:26:25;1.27;;;0.57;;
1719;SDS011;857;52.872;9.692;2022-09-14T15:28:53;1.43;;;1.17;;
1719;SDS011;857;52.872;9.692;2022-09-14T15:31:21;1.30;;;0.77;;
1719;SDS011;857;52.872;9.692;2022-09-14T15:33:48;2.50;;;1.17;;
1719;SDS011;857;52.872;9.692;2022-09-14T15:39:00;3.30;;;1.20;;
1719;SDS011;857;52.872;9.692;2022-09-14T15:41:27;2.50;;;1.17;;
1719;SDS011;857;52.872;9.692;2022-09-14T15:43:55;1.50;;;1.10;;
1719;SDS011;857;52.872;9.692;2022-09-14T15:46:23;4.43;;;1.47;;
1719;SDS011;857;52.872;9.692;2022-09-14T15:48:51;2.93;;;1.50;;
1719;SDS011;857;52.872;9.692;2022-09-14T15:51:18;5.13;;;1.50;;
1719;SDS011;857;52.872;9.692;2022-09-14T15:53:46;1.97;;;1.20;;
1719;SDS011;857;52.872;9.692;2022-09-14T15:56:15;1.60;;;1.20;;
1719;SDS011;857;52.872;9.692;2022-09-14T15:58:43;4.07;;;1.33;;
1719;SDS011;857;52.872;9.692;2022-09-14T16:01:11;2.30;;;1.40;;
1719;SDS011;857;52.872;9.692;2022-09-14T16:03:39;2.97;;;1.50;;
1719;SDS011;857;52.872;9.692;2022-09-14T16:06:07;4.83;;;1.23;;
1719;SDS011;857;52.872;9.692;2022-09-14T16:08:35;3.53;;;1.23;;
1719;SDS011;857;52.872;9.692;2022-09-14T16:11:03;3.47;;;1.87;;
1719;SDS011;857;52.872;9.692;2022-09-14T16:13:33;2.10;;;1.40;;
1719;SDS011;857;52.872;9.692;2022-09-14T16:16:01;2.83;;;1.40;;
1719;SDS011;857;52.872;9.692;2022-09-14T16:18:29;3.27;;;1.30;;